Time;durP1;ratioP1;P1;durP2;ratioP2;P2;SDS_P1;SDS_P2;PMS_P1;PMS_P2;Temp;Humidity;BMP_temperature;BMP_pressure;BME280_temperature;BME280_humidity;BME280_pressure;Samples;Min_cycle;Max_cycle;Signal;HPM_P1;HPM_P2
2022/11/11 00:02:38;;;;;;;39.30;18.95;;;;;;;8.80;92.51;100351.52;1718311;82;21582;-80
2022/11/11 00:05:24;;;;;;;44.25;20.23;;;;;;;8.78;92.75;100342.01;1718423;80;21055;-81
2022/11/11 00:08:09;;;;;;;41.88;19.23;;;;;;;8.73;93.27;100338.98;1722309;80;21019;-79
2022/11/11 00:11:04;;;;;;;41.23;16.32;;;;;;;8.74;93.48;100346.31;1718381;80;21107;-80
2022/11/11 00:13:49;;;;;;;36.28;16.32;;;;;;;8.74;93.89;100353.66;1724311;80;21023;-79
2022/11/11 00:25:44;;;;;;;49.05;21.65;;;;;;;8.81;93.91;100355.82;1736152;80;21097;-81
2022/11/11 00:28:29;;;;;;;44.00;19.70;;;;;;;8.79;94.03;100352.36;1721580;82;21025;-78
2022/11/11 00:31:14;;;;;;;55.05;24.85;;;;;;;8.81;94.19;100355.82;1734659;80;21087;-80
2022/11/11 00:33:59;;;;;;;53.58;21.52;;;;;;;8.82;94.07;100345.90;1735509;80;21140;-78
2022/11/11 00:36:44;;;;;;;56.63;22.17;;;;;;;8.85;94.17;100341.14;1732704;80;21028;-80
2022/11/11 00:39:30;;;;;;;38.73;17.82;;;;;;;8.85;94.23;100345.03;1728764;80;21147;-79
2022/11/11 00:42:15;;;;;;;44.63;17.65;;;;;;;8.88;94.06;100354.12;1729455;82;21029;-79
2022/11/11 00:44:59;;;;;;;38.53;17.00;;;;;;;8.82;94.12;100358.01;1738424;82;21079;-80
2022/11/11 00:50:57;;;;;;;38.37;15.70;;;;;;;8.80;94.58;100342.44;1733386;82;21031;-79
2022/11/11 00:53:41;;;;;;;41.80;17.35;;;;;;;8.84;95.14;100345.47;1725377;80;21044;-79
2022/11/11 00:56:27;;;;;;;41.33;18.92;;;;;;;8.91;95.21;100339.85;1736355;82;21027;-80
2022/11/11 00:59:11;;;;;;;41.98;18.37;;;;;;;8.95;95.42;100342.48;1722708;82;21031;-77
2022/11/11 01:01:56;;;;;;;34.65;15.70;;;;;;;9.00;94.97;100340.31;1722126;82;21142;-80
2022/11/11 01:04:41;;;;;;;35.92;16.17;;;;;;;8.99;95.06;100338.57;1723393;80;21051;-79
2022/11/11 01:07:26;;;;;;;37.23;15.03;;;;;;;9.01;94.74;100334.25;1725070;82;21096;-79
2022/11/11 01:10:11;;;;;;;34.90;15.50;;;;;;;9.01;94.83;100329.06;1719775;80;21317;-78
2022/11/11 01:13:10;;;;;;;30.27;14.15;;;;;;;9.02;94.57;100323.88;1736112;80;21504;-80
2022/11/11 01:15:47;;;;;;;34.05;14.13;;;;;;;9.00;94.34;100337.28;1751716;80;20975;-80
2022/11/11 01:18:33;;;;;;;30.95;14.70;;;;;;;9.00;94.45;100329.50;1723763;82;21051;-80
2022/11/11 01:21:22;;;;;;;42.65;20.05;;;;;;;9.01;94.78;100326.03;1719000;82;21025;-80
2022/11/11 01:24:07;;;;;;;34.55;16.32;;;;;;;9.01;94.96;100341.59;1725641;82;20995;-80
2022/11/11 01:26:52;;;;;;;41.15;16.80;;;;;;;9.00;94.72;100322.16;1720329;82;21076;-80
2022/11/11 01:29:37;;;;;;;38.83;16.60;;;;;;;8.98;94.86;100326.48;1733086;80;21012;-80
2022/11/11 01:32:22;;;;;;;33.38;15.98;;;;;;;8.96;94.83;100335.11;1742584;80;20996;-80
2022/11/11 01:35:07;;;;;;;35.45;17.00;;;;;;;8.92;94.87;100328.19;1725429;80;21036;-80
2022/11/11 01:37:52;;;;;;;34.70;16.10;;;;;;;8.90;95.04;100335.10;1747278;80;21019;-80
2022/11/11 01:40:43;;;;;;;38.80;16.93;;;;;;;8.86;95.19;100332.08;1719076;82;20995;-81
2022/11/11 01:43:28;;;;;;;34.92;15.83;;;;;;;8.83;94.16;100332.05;1743358;80;20995;-79
2022/11/11 01:46:40;;;;;;;40.78;17.77;;;;;;;8.79;94.62;100330.76;1729840;81;21972;-78
2022/11/11 01:49:48;;;;;;;35.90;16.37;;;;;;;8.75;94.90;100329.88;1751658;81;21028;-83
2022/11/11 01:52:39;;;;;;;39.38;16.50;;;;;;;8.71;95.76;100325.55;1736830;81;21012;-80
2022/11/11 01:55:25;;;;;;;33.05;14.70;;;;;;;8.69;96.06;100317.77;1750949;81;20985;-82
2022/11/11 01:58:13;;;;;;;36.20;15.65;;;;;;;8.68;96.25;100319.08;1747000;80;20961;-84
2022/11/11 02:00:59;;;;;;;40.95;16.95;;;;;;;8.68;96.13;100315.20;1752803;81;20973;-79
2022/11/11 02:05:41;;;;;;;34.00;15.03;;;;;;;8.69;96.25;100317.77;1765946;81;20941;-79
2022/11/11 02:06:33;;;;;;;31.70;14.47;;;;;;;8.70;96.50;100309.58;1756312;80;20966;-83
2022/11/11 02:09:21;;;;;;;33.18;14.20;;;;;;;8.70;95.97;100308.28;1754317;80;21511;-80
2022/11/11 02:15:13;;;;;;;40.85;17.25;;;;;;;8.70;96.05;100305.25;1755490;81;20996;-83
2022/11/11 02:17:57;;;;;;;45.10;16.97;;;;;;;8.72;95.46;100323.41;1717848;81;21008;-78
2022/11/11 02:20:43;;;;;;;40.23;16.20;;;;;;;8.70;95.89;100319.95;1750043;81;20973;-79
2022/11/11 02:23:52;;;;;;;37.48;14.38;;;;;;;8.74;96.35;100320.39;1742741;80;20992;-83
2022/11/11 02:26:38;;;;;;;35.90;15.95;;;;;;;8.77;96.25;100315.19;1746272;80;21001;-79
2022/11/11 02:29:24;;;;;;;38.17;15.23;;;;;;;8.82;96.69;100312.19;1752320;80;21477;-79
2022/11/11 02:32:08;;;;;;;31.97;14.83;;;;;;;8.86;96.72;100325.59;1748985;80;20981;-81
2022/11/11 02:34:53;;;;;;;34.40;14.70;;;;;;;8.91;96.58;100329.48;1768447;81;20985;-81
2022/11/11 02:37:38;;;;;;;38.13;15.25;;;;;;;8.93;96.69;100331.64;1754732;80;20985;-78
2022/11/11 02:40:34;;;;;;;34.15;15.08;;;;;;;8.97;96.52;100334.67;1738024;80;21441;-79
2022/11/11 02:43:19;;;;;;;34.85;14.25;;;;;;;9.02;96.75;100335.55;1742641;81;21016;-77
2022/11/11 02:46:05;;;;;;;32.33;13.80;;;;;;;9.06;96.16;100340.31;1748864;80;21087;-80
2022/11/11 02:48:50;;;;;;;34.53;15.72;;;;;;;9.01;95.85;100345.48;1718581;80;21023;-80
2022/11/11 02:51:35;;;;;;;37.83;16.32;;;;;;;8.98;96.12;100349.39;1723339;80;20996;-80
2022/11/11 02:54:20;;;;;;;38.78;15.63;;;;;;;9.03;96.69;100350.67;1741064;82;21016;-79
2022/11/11 02:57:08;;;;;;;36.65;16.45;;;;;;;9.06;96.74;100343.77;1722870;82;21491;-80
2022/11/11 02:59:53;;;;;;;37.65;15.83;;;;;;;9.10;96.68;100340.31;1731326;82;21638;-80
2022/11/11 03:02:38;;;;;;;35.48;16.00;;;;;;;9.10;96.54;100346.80;1722761;82;21044;-80
2022/11/11 03:05:24;;;;;;;31.07;15.95;;;;;;;9.03;95.44;100351.97;1718579;80;21123;-80
2022/11/11 03:08:09;;;;;;;39.13;18.23;;;;;;;8.98;95.41;100358.91;1731649;80;21047;-80
2022/11/11 03:10:54;;;;;;;38.28;17.75;;;;;;;8.92;96.13;100358.02;1743842;82;21023;-81
2022/11/11 03:13:38;;;;;;;34.38;16.55;;;;;;;8.89;96.22;100357.14;1730103;80;21018;-80
2022/11/11 03:19:27;;;;;;;36.73;15.35;;;;;;;8.80;96.39;100337.25;1726893;82;21007;-79
2022/11/11 03:22:12;;;;;;;38.30;16.12;;;;;;;8.74;96.46;100348.91;1727582;80;22132;-80
2022/11/11 03:28:00;;;;;;;32.57;14.13;;;;;;;8.62;96.53;100339.81;1719996;80;21027;-79
2022/11/11 03:30:48;;;;;;;32.25;14.33;;;;;;;8.55;96.76;100349.27;1734906;82;21071;-80
2022/11/11 03:33:33;;;;;;;36.77;17.10;;;;;;;8.53;96.82;100353.59;1745351;82;21016;-80
2022/11/11 03:36:18;;;;;;;36.65;14.50;;;;;;;8.49;95.92;100353.14;1729978;80;21003;-77
2022/11/11 03:39:03;;;;;;;33.40;13.50;;;;;;;8.40;95.46;100356.55;1720587;80;21000;-79
2022/11/11 03:41:48;;;;;;;32.55;13.68;;;;;;;8.33;96.71;100372.91;1735014;80;21290;-80
2022/11/11 03:44:33;;;;;;;37.73;13.85;;;;;;;8.26;97.28;100375.92;1739064;80;21507;-80
2022/11/11 03:47:18;;;;;;;31.48;13.55;;;;;;;8.23;97.51;100378.48;1727079;80;21036;-80
2022/11/11 03:50:03;;;;;;;33.53;14.60;;;;;;;8.23;97.78;100374.59;1739013;80;21617;-79
2022/11/11 03:52:48;;;;;;;38.45;16.37;;;;;;;8.23;97.88;100375.89;1743707;80;21385;-80
2022/11/11 03:55:33;;;;;;;37.65;16.20;;;;;;;8.27;97.91;100388.44;1744900;81;21009;-80
2022/11/11 03:58:18;;;;;;;41.83;16.77;;;;;;;8.30;97.75;100385.87;1745270;80;21021;-79
2022/11/11 04:10:21;;;;;;;37.95;15.68;;;;;;;8.33;98.05;100384.58;1761311;80;21028;-78
2022/11/11 04:16:05;;;;;;;33.75;14.80;;;;;;;8.52;98.31;100401.98;1740723;81;21004;-79
2022/11/11 04:21:53;;;;;;;43.00;15.15;;;;;;;8.61;98.09;100390.77;1743895;80;21036;-80
2022/11/11 04:27:42;;;;;;;38.92;17.12;;;;;;;8.69;97.80;100399.87;1757334;80;21020;-83
2022/11/11 04:30:27;;;;;;;33.50;16.32;;;;;;;8.71;98.01;100402.03;1757967;80;21024;-80
2022/11/11 04:33:12;;;;;;;38.90;17.42;;;;;;;8.71;97.60;100408.52;1743046;81;20996;-79
2022/11/11 04:35:57;;;;;;;35.33;17.05;;;;;;;8.67;97.41;100406.78;1767133;80;21056;-79
2022/11/11 04:41:46;;;;;;;46.93;22.27;;;;;;;8.63;97.85;100410.22;1737565;81;21540;-80
2022/11/11 04:47:34;;;;;;;33.78;15.15;;;;;;;8.56;97.67;100397.68;1757236;80;21479;-80
2022/11/11 04:50:20;;;;;;;42.75;19.00;;;;;;;8.52;98.15;100412.34;1736761;81;21030;-80
2022/11/11 04:53:11;;;;;;;45.85;21.40;;;;;;;8.50;98.24;100412.77;1760072;81;21508;-78
2022/11/11 04:59:14;;;;;;;32.17;14.95;;;;;;;8.50;98.39;100418.39;1742565;81;21088;-78
2022/11/11 05:05:03;;;;;;;37.20;15.97;;;;;;;8.48;97.95;100431.34;1749258;81;21628;-80
2022/11/11 05:10:51;;;;;;;38.57;15.47;;;;;;;8.48;97.80;100436.95;1740766;81;21088;-80
2022/11/11 05:22:43;;;;;;;51.40;22.17;;;;;;;8.54;97.94;100430.50;1735851;81;21028;-78
2022/11/11 05:25:32;;;;;;;41.95;18.75;;;;;;;8.55;97.97;100437.00;1741018;80;21441;-79
2022/11/11 05:28:17;;;;;;;48.25;20.62;;;;;;;8.61;98.18;100442.61;1736294;80;20988;-79
2022/11/11 05:31:02;;;;;;;62.40;25.68;;;;;;;8.67;98.20;100445.67;1744475;80;20965;-80
2022/11/11 05:33:47;;;;;;;54.90;25.05;;;;;;;8.70;98.30;100443.10;1757300;80;21028;-79
2022/11/11 05:36:32;;;;;;;61.28;27.58;;;;;;;8.77;98.28;100453.91;1743208;81;21004;-81
2022/11/11 05:39:17;;;;;;;52.00;24.12;;;;;;;8.80;98.10;100453.94;1735457;80;21115;-79
2022/11/11 05:42:03;;;;;;;55.78;21.90;;;;;;;8.84;97.95;100462.61;1755252;80;21008;-79
2022/11/11 05:44:48;;;;;;;46.95;22.17;;;;;;;8.81;97.20;100460.84;1755169;81;20992;-78
2022/11/11 05:47:33;;;;;;;52.17;23.75;;;;;;;8.80;97.21;100464.31;1741876;80;21571;-80
2022/11/11 05:50:17;;;;;;;54.60;26.40;;;;;;;8.74;96.99;100470.34;1734871;81;21056;-83
2022/11/11 05:53:03;;;;;;;59.25;28.35;;;;;;;8.73;97.10;100467.73;1741515;81;21108;-81
2022/11/11 05:55:50;;;;;;;70.85;32.28;;;;;;;8.72;97.14;100473.79;1749262;81;21012;-81
2022/11/11 05:58:34;;;;;;;72.92;32.65;;;;;;;8.72;97.20;100476.38;1763426;81;21084;-81
2022/11/11 06:01:19;;;;;;;73.28;31.80;;;;;;;8.71;97.23;100478.52;1746483;81;21544;-80
2022/11/11 06:04:05;;;;;;;68.97;31.12;;;;;;;8.66;96.51;100491.48;1734975;80;21048;-79
2022/11/11 06:06:50;;;;;;;64.97;31.68;;;;;;;8.58;96.89;100496.20;1741028;80;21028;-79
2022/11/11 06:09:35;;;;;;;67.78;32.70;;;;;;;8.52;96.80;100502.20;1754873;80;20993;-78
2022/11/11 06:12:20;;;;;;;60.10;28.15;;;;;;;8.45;96.62;100510.80;1760254;80;20996;-80
2022/11/11 06:15:07;;;;;;;56.15;26.27;;;;;;;8.35;96.43;100513.28;1737531;80;21021;-80
2022/11/11 06:17:52;;;;;;;55.78;26.05;;;;;;;8.25;96.35;100506.30;1750441;80;21036;-80
2022/11/11 06:20:37;;;;;;;57.83;23.57;;;;;;;8.20;96.82;100509.31;1760593;80;20993;-79
2022/11/11 06:23:22;;;;;;;43.50;21.87;;;;;;;8.18;96.86;100522.68;1756498;79;20972;-78
2022/11/11 06:26:13;;;;;;;53.85;25.10;;;;;;;8.12;96.78;100533.00;1767141;80;21064;-78
2022/11/11 06:28:58;;;;;;;58.13;26.40;;;;;;;8.09;96.96;100535.11;1742227;81;21088;-79
2022/11/11 06:31:44;;;;;;;80.38;36.88;;;;;;;8.15;97.12;100542.08;1747004;80;21006;-79
2022/11/11 06:34:29;;;;;;;76.28;33.55;;;;;;;8.19;96.89;100547.72;1741299;80;20981;-78
2022/11/11 06:37:14;;;;;;;90.28;39.88;;;;;;;8.19;97.48;100546.42;1736102;80;20981;-78
2022/11/11 06:39:58;;;;;;;83.10;32.75;;;;;;;8.27;98.24;100539.57;1748044;80;21008;-78
2022/11/11 06:42:43;;;;;;;73.50;29.52;;;;;;;8.38;98.33;100535.78;1755609;81;20981;-79
2022/11/11 06:45:30;;;;;;;62.00;28.07;;;;;;;8.48;98.36;100547.97;1749551;81;21092;-78
2022/11/11 06:48:15;;;;;;;91.67;38.73;;;;;;;8.60;98.63;100559.29;1727447;82;21043;-80
2022/11/11 06:51:05;;;;;;;60.98;27.13;;;;;;;8.72;98.79;100553.73;1727644;82;21568;-79
2022/11/11 06:53:51;;;;;;;59.27;29.02;;;;;;;8.87;98.69;100567.64;1734994;80;21008;-80
2022/11/11 06:56:36;;;;;;;59.88;27.22;;;;;;;8.93;98.21;100555.59;1719385;80;21055;-80
2022/11/11 06:59:21;;;;;;;53.87;23.55;;;;;;;9.04;98.12;100566.44;1722911;80;21070;-79
2022/11/11 07:02:13;;;;;;;56.15;24.12;;;;;;;9.15;98.27;100565.63;1745152;80;21978;-79
2022/11/11 07:04:59;;;;;;;40.00;17.62;;;;;;;9.25;97.95;100568.24;1722025;80;21089;-79
2022/11/11 07:07:44;;;;;;;41.98;21.07;;;;;;;9.35;97.55;100573.90;1718802;80;21044;-80
2022/11/11 07:10:30;;;;;;;46.37;23.27;;;;;;;9.39;97.18;100575.67;1725852;80;21051;-81
2022/11/11 07:13:15;;;;;;;50.28;23.55;;;;;;;9.51;97.67;100586.09;1731958;80;20956;-78
2022/11/11 07:16:00;;;;;;;55.92;26.82;;;;;;;9.61;97.68;100576.59;1732103;80;21090;-80
2022/11/11 07:18:44;;;;;;;66.05;28.45;;;;;;;9.70;97.39;100576.60;1732072;80;21009;-81
2022/11/11 07:21:29;;;;;;;54.67;25.00;;;;;;;9.74;97.03;100580.94;1727449;80;21023;-78
2022/11/11 07:24:14;;;;;;;45.60;21.80;;;;;;;9.80;96.68;100581.38;1726682;80;21020;-81
2022/11/11 07:27:00;;;;;;;56.65;26.87;;;;;;;9.85;96.78;100576.22;1728790;80;21064;-80
2022/11/11 07:29:47;;;;;;;46.73;22.35;;;;;;;9.85;96.27;100584.02;1739967;80;21000;-80
2022/11/11 07:32:33;;;;;;;39.78;18.90;;;;;;;9.89;96.32;100577.95;1726475;80;21067;-79
2022/11/11 07:35:19;;;;;;;38.95;18.10;;;;;;;9.93;96.10;100583.59;1734272;80;21058;-80
2022/11/11 07:38:04;;;;;;;39.50;18.45;;;;;;;9.96;96.08;100582.27;1730652;80;21087;-81
2022/11/11 07:40:49;;;;;;;41.05;17.75;;;;;;;9.99;96.03;100584.89;1724757;80;21567;-77
2022/11/11 07:43:34;;;;;;;37.83;16.97;;;;;;;10.00;95.91;100587.91;1727263;80;21129;-81
2022/11/11 07:46:19;;;;;;;35.58;15.45;;;;;;;10.00;95.81;100589.65;1729283;80;21792;-82
2022/11/11 07:49:04;;;;;;;37.10;16.32;;;;;;;10.02;95.79;100587.48;1728591;80;21015;-79
2022/11/11 07:51:49;;;;;;;36.80;17.07;;;;;;;10.05;95.76;100587.49;1727886;82;21000;-79
2022/11/11 07:54:33;;;;;;;42.90;18.15;;;;;;;10.02;95.20;100596.57;1722856;82;21051;-79
2022/11/11 07:57:18;;;;;;;39.80;18.20;;;;;;;10.02;95.32;100593.97;1731717;82;21047;-80
2022/11/11 08:00:05;;;;;;;32.88;15.38;;;;;;;10.04;95.20;100591.38;1724909;82;21027;-78
2022/11/11 08:02:50;;;;;;;38.67;16.55;;;;;;;10.04;95.19;100588.34;1727748;82;20980;-79
2022/11/11 08:05:35;;;;;;;41.48;17.17;;;;;;;10.09;95.55;100592.27;1724108;82;21172;-79
2022/11/11 08:08:23;;;;;;;40.23;18.10;;;;;;;10.16;95.70;100589.64;1726600;82;21055;-81
2022/11/11 08:11:06;;;;;;;49.00;20.48;;;;;;;10.19;95.39;100588.80;1725699;82;20984;-81
2022/11/11 08:13:51;;;;;;;50.63;21.17;;;;;;;10.25;95.71;100591.40;1724964;82;20980;-82
2022/11/11 08:16:36;;;;;;;47.23;19.65;;;;;;;10.31;95.45;100590.57;1728945;82;21055;-81
2022/11/11 08:19:21;;;;;;;58.13;22.02;;;;;;;10.36;95.57;100588.81;1727760;82;21016;-79
2022/11/11 08:22:06;;;;;;;54.98;22.35;;;;;;;10.39;95.62;100588.84;1723762;82;21547;-80
2022/11/11 08:24:50;;;;;;;49.03;21.02;;;;;;;10.43;95.83;100588.41;1721437;82;21122;-79
2022/11/11 08:27:36;;;;;;;57.20;20.68;;;;;;;10.49;95.70;100580.16;1720941;82;20968;-76
2022/11/11 08:30:21;;;;;;;45.48;19.62;;;;;;;10.53;95.38;100582.33;1731273;82;21019;-79
2022/11/11 08:33:06;;;;;;;42.13;17.60;;;;;;;10.57;95.41;100597.49;1725935;82;21020;-80
2022/11/11 08:35:53;;;;;;;48.85;19.37;;;;;;;10.60;95.18;100592.27;1728550;82;21079;-79
2022/11/11 08:38:38;;;;;;;46.55;18.60;;;;;;;10.66;95.27;100592.27;1732278;82;21010;-80
2022/11/11 08:41:23;;;;;;;45.48;19.02;;;;;;;10.72;95.26;100593.55;1722704;82;21023;-81
2022/11/11 08:44:09;;;;;;;40.85;18.30;;;;;;;10.81;95.41;100590.09;1732114;82;21545;-79
2022/11/11 08:46:54;;;;;;;44.75;18.92;;;;;;;10.90;95.28;100597.84;1731623;82;22334;-80
2022/11/11 08:49:38;;;;;;;50.83;21.37;;;;;;;11.02;95.17;100606.95;1732174;80;21436;-79
2022/11/11 08:52:23;;;;;;;49.30;19.57;;;;;;;11.08;95.26;100603.44;1722314;80;21095;-79
2022/11/11 08:55:08;;;;;;;48.40;19.35;;;;;;;11.18;95.14;100596.47;1741573;80;21309;-80
2022/11/11 08:58:00;;;;;;;44.65;18.52;;;;;;;11.25;95.06;100602.95;1728159;80;21168;-79
2022/11/11 09:00:44;;;;;;;40.60;18.75;;;;;;;11.33;94.53;100597.72;1728908;80;21035;-79
2022/11/11 09:03:30;;;;;;;52.58;22.98;;;;;;;11.42;94.81;100599.41;1732107;80;21089;-82
2022/11/11 09:06:15;;;;;;;58.02;22.42;;;;;;;11.49;94.13;100605.02;1725267;80;21589;-77
2022/11/11 09:09:00;;;;;;;55.03;22.25;;;;;;;11.56;94.39;100606.73;1724382;80;21008;-79
2022/11/11 09:11:44;;;;;;;57.50;24.02;;;;;;;11.63;94.19;100604.52;1723911;80;21012;-77
2022/11/11 09:14:29;;;;;;;55.17;21.85;;;;;;;11.71;93.77;100600.56;1731261;80;22238;-78
2022/11/11 09:17:15;;;;;;;51.65;21.82;;;;;;;11.78;93.63;100607.90;1732563;80;21930;-78
2022/11/11 09:20:00;;;;;;;57.45;23.57;;;;;;;11.81;93.18;100609.20;1723741;80;20995;-80
2022/11/11 09:22:47;;;;;;;62.13;24.45;;;;;;;11.85;93.60;100603.95;1727888;80;21052;-78
2022/11/11 09:25:32;;;;;;;50.33;21.73;;;;;;;11.93;93.57;100596.13;1728516;80;21059;-78
2022/11/11 09:28:17;;;;;;;54.25;19.12;;;;;;;11.99;92.88;100586.95;1734009;80;20998;-79
2022/11/11 09:31:03;;;;;;;48.63;18.85;;;;;;;12.02;92.82;100589.55;1732850;80;21012;-80
2022/11/11 09:33:49;;;;;;;50.67;19.35;;;;;;;12.10;93.04;100591.66;1720217;80;21066;-81
2022/11/11 09:36:34;;;;;;;49.42;18.40;;;;;;;12.22;93.38;100592.45;1740715;80;21515;-78
2022/11/11 09:39:19;;;;;;;42.23;18.12;;;;;;;12.37;92.95;100597.97;1727997;80;21020;-79
2022/11/11 09:42:39;;;;;;;53.78;18.80;;;;;;;12.47;93.21;100602.22;1737454;80;21565;-79
2022/11/11 09:45:50;;;;;;;45.08;19.55;;;;;;;12.60;92.99;100608.21;1725201;80;21107;-80
2022/11/11 09:48:58;;;;;;;45.92;17.75;;;;;;;12.73;92.66;100613.30;1743137;80;21521;-80
2022/11/11 09:52:09;;;;;;;41.68;17.65;;;;;;;12.87;92.52;100610.97;1744536;80;21026;-78
2022/11/11 09:55:08;;;;;;;43.73;17.10;;;;;;;13.02;92.32;100613.42;1737113;80;21040;-78
2022/11/11 09:58:00;;;;;;;45.78;20.50;;;;;;;13.10;91.21;100613.34;1743314;80;21496;-79
2022/11/11 10:00:51;;;;;;;45.33;18.80;;;;;;;13.20;91.65;100607.58;1738644;81;21012;-79
2022/11/11 10:03:44;;;;;;;44.00;19.15;;;;;;;13.30;91.12;100611.39;1748313;80;21619;-78
2022/11/11 10:06:32;;;;;;;58.10;25.70;;;;;;;13.40;90.68;100612.14;1724675;80;21107;-78
2022/11/11 10:09:31;;;;;;;56.33;23.85;;;;;;;13.48;90.29;100615.52;1746847;80;21020;-77
2022/11/11 10:12:16;;;;;;;45.90;19.77;;;;;;;13.57;89.61;100613.67;1740763;80;21587;-78
2022/11/11 10:15:04;;;;;;;45.50;18.27;;;;;;;13.64;89.03;100617.50;1742692;80;21636;-79
2022/11/11 10:18:10;;;;;;;44.23;17.80;;;;;;;13.71;88.88;100623.08;1739217;80;21060;-78
2022/11/11 10:20:55;;;;;;;38.40;16.65;;;;;;;13.76;87.54;100626.92;1718218;80;21491;-80
2022/11/11 10:23:45;;;;;;;38.08;16.65;;;;;;;13.82;88.45;100618.13;1740640;80;21082;-78
2022/11/11 10:26:39;;;;;;;38.48;16.15;;;;;;;13.88;87.40;100614.13;1735165;80;21079;-78
2022/11/11 10:29:30;;;;;;;38.63;15.60;;;;;;;13.97;86.24;100615.30;1767067;80;21068;-78
2022/11/11 10:32:31;;;;;;;38.38;15.03;;;;;;;14.02;86.21;100606.08;1753285;80;20961;-78
2022/11/11 10:35:21;;;;;;;31.68;14.63;;;;;;;14.10;85.56;100606.37;1742983;80;21028;-78
2022/11/11 10:38:35;;;;;;;32.53;13.50;;;;;;;14.24;84.94;100605.30;1758885;80;20981;-78
2022/11/11 10:41:46;;;;;;;28.07;13.25;;;;;;;14.32;82.28;100608.64;1744175;80;21213;-77
2022/11/11 10:44:35;;;;;;;29.23;12.98;;;;;;;14.46;84.32;100604.08;1738335;80;21000;-78
2022/11/11 10:47:34;;;;;;;29.02;13.18;;;;;;;14.61;83.75;100596.42;1745552;80;21031;-78
2022/11/11 10:50:24;;;;;;;26.50;12.20;;;;;;;14.74;83.76;100597.05;1744953;79;21532;-79
2022/11/11 10:53:20;;;;;;;22.00;11.43;;;;;;;14.88;82.09;100604.23;1750038;79;21009;-79
2022/11/11 10:56:43;;;;;;;25.62;11.35;;;;;;;15.10;81.59;100599.89;1748052;79;21075;-79
2022/11/11 10:59:45;;;;;;;23.80;10.90;;;;;;;15.33;81.72;100595.48;1743838;79;21048;-79
2022/11/11 11:03:00;;;;;;;24.02;10.95;;;;;;;15.54;78.03;100599.42;1760780;79;21071;-79
2022/11/11 11:06:29;;;;;;;31.60;11.73;;;;;;;15.67;77.05;100591.67;1713890;79;21083;-77
2022/11/11 11:09:31;;;;;;;23.92;11.20;;;;;;;15.76;74.33;100589.80;1754174;79;21004;-79
2022/11/11 11:12:37;;;;;;;27.42;10.65;;;;;;;15.65;75.62;100584.30;1732465;79;21504;-76
2022/11/11 11:15:24;;;;;;;20.55;9.95;;;;;;;15.65;74.79;100575.58;1749330;79;21052;-79
2022/11/11 11:18:16;;;;;;;20.72;9.43;;;;;;;15.76;74.77;100581.94;1703266;82;21025;-79
2022/11/11 11:21:07;;;;;;;23.92;11.12;;;;;;;15.89;75.63;100573.72;1722309;82;21117;-80
2022/11/11 11:23:51;;;;;;;17.05;8.58;;;;;;;16.01;75.18;100570.41;1692310;83;20997;-78
2022/11/11 11:26:50;;;;;;;19.20;9.45;;;;;;;16.08;74.00;100572.85;1696904;83;21032;-77
2022/11/11 11:29:41;;;;;;;20.12;9.60;;;;;;;16.11;73.79;100565.34;1695350;83;20996;-79
2022/11/11 11:32:31;;;;;;;18.10;9.25;;;;;;;16.16;73.95;100563.95;1694505;83;21084;-78
2022/11/11 11:35:43;;;;;;;17.77;8.88;;;;;;;16.27;75.86;100567.14;1694527;83;21024;-78
2022/11/11 11:38:45;;;;;;;20.05;9.15;;;;;;;16.42;73.39;100563.28;1697351;83;21472;-81
2022/11/11 11:41:50;;;;;;;15.18;8.20;;;;;;;16.46;71.89;100568.86;1689241;83;21023;-78
2022/11/11 11:44:35;;;;;;;17.27;8.20;;;;;;;16.46;71.09;100572.34;1701400;82;21438;-77
2022/11/11 11:47:45;;;;;;;17.95;8.33;;;;;;;16.37;70.23;100566.47;1701962;82;21010;-78
2022/11/11 11:50:49;;;;;;;17.75;8.20;;;;;;;16.30;70.23;100571.02;1684081;82;21049;-78
2022/11/11 11:54:01;;;;;;;16.35;8.78;;;;;;;16.22;71.28;100569.04;1673410;83;21108;-77
2022/11/11 11:56:51;;;;;;;16.95;8.65;;;;;;;16.02;70.86;100563.83;1733579;80;21380;-78
2022/11/11 12:00:05;;;;;;;17.20;8.15;;;;;;;15.90;70.92;100559.73;1733205;80;21086;-77
2022/11/11 12:03:01;;;;;;;16.77;8.17;;;;;;;15.82;70.66;100561.67;1728591;80;21057;-78
2022/11/11 12:05:51;;;;;;;15.45;7.60;;;;;;;15.73;69.90;100555.78;1732144;80;21530;-79
2022/11/11 12:08:56;;;;;;;17.60;8.33;;;;;;;15.65;69.78;100558.08;1743076;80;22226;-78
2022/11/11 12:12:03;;;;;;;15.43;8.35;;;;;;;15.53;69.72;100562.75;1743785;80;21000;-78
2022/11/11 12:14:56;;;;;;;19.77;9.28;;;;;;;15.40;70.00;100558.20;1733513;80;21049;-79
2022/11/11 12:18:03;;;;;;;19.35;9.13;;;;;;;15.25;70.21;100553.71;1723067;80;21026;-79
2022/11/11 12:21:08;;;;;;;16.82;8.80;;;;;;;15.13;70.28;100554.43;1729728;80;20992;-79
2022/11/11 12:24:17;;;;;;;22.95;8.68;;;;;;;14.98;70.10;100555.16;1719559;80;21659;-78
2022/11/11 12:27:31;;;;;;;19.05;8.03;;;;;;;14.82;70.59;100566.80;1729094;80;21317;-78
2022/11/11 12:30:28;;;;;;;25.57;12.65;;;;;;;14.66;70.62;100570.16;1684992;84;21549;-79
2022/11/11 12:33:53;;;;;;;30.82;13.35;;;;;;;14.51;71.07;100565.59;1724489;80;21527;-79
2022/11/11 12:37:08;;;;;;;21.15;9.00;;;;;;;14.40;71.98;100567.52;1662883;85;21075;-78
2022/11/11 12:40:07;;;;;;;17.12;8.93;;;;;;;14.37;72.04;100563.66;1671885;85;21554;-78
2022/11/11 12:43:30;;;;;;;18.25;8.48;;;;;;;14.35;71.94;100567.20;1734126;80;21570;-79
2022/11/11 12:46:23;;;;;;;20.32;8.78;;;;;;;14.34;72.57;100565.01;1732022;80;21049;-79
2022/11/11 12:49:44;;;;;;;19.98;9.48;;;;;;;14.33;72.42;100564.16;1724872;80;22043;-76
2022/11/11 12:53:08;;;;;;;18.67;8.15;;;;;;;14.37;72.53;100574.12;1722193;82;21587;-77
2022/11/11 12:56:31;;;;;;;17.05;8.18;;;;;;;14.39;72.55;100566.27;1712822;82;21105;-78
2022/11/11 12:59:30;;;;;;;17.92;8.35;;;;;;;14.39;72.42;100569.73;1712631;82;21062;-77
2022/11/11 13:02:26;;;;;;;17.77;8.43;;;;;;;14.43;71.90;100557.02;1711410;82;21008;-77
2022/11/11 13:05:31;;;;;;;18.48;8.58;;;;;;;14.44;72.02;100556.14;1711875;82;21111;-79
2022/11/11 13:09:08;;;;;;;22.70;10.45;;;;;;;14.48;71.99;100559.12;1726511;82;21571;-78
2022/11/11 13:12:10;;;;;;;17.95;8.50;;;;;;;14.49;72.17;100563.45;1712878;82;21605;-78
2022/11/11 13:15:00;;;;;;;17.37;7.90;;;;;;;14.52;71.76;100566.02;1722607;82;21042;-78
2022/11/11 13:17:45;;;;;;;18.55;8.45;;;;;;;14.58;72.04;100568.13;1711888;82;22272;-79
2022/11/11 13:20:57;;;;;;;19.32;8.65;;;;;;;14.60;72.33;100560.66;1714121;82;21563;-79
2022/11/11 13:23:42;;;;;;;22.17;9.25;;;;;;;14.60;71.53;100572.43;1715191;82;21048;-79
2022/11/11 13:26:33;;;;;;;24.47;10.88;;;;;;;14.64;71.13;100565.39;1710936;82;20993;-79
2022/11/11 13:29:54;;;;;;;23.70;10.25;;;;;;;14.62;70.39;100575.03;1712147;82;21563;-77
2022/11/11 13:32:46;;;;;;;52.88;20.70;;;;;;;14.61;71.24;100572.01;1711783;82;21502;-78
2022/11/11 13:35:45;;;;;;;54.42;20.85;;;;;;;14.59;71.50;100577.72;1716953;82;21012;-78
2022/11/11 13:38:56;;;;;;;52.05;21.30;;;;;;;14.53;71.21;100580.81;1715514;82;21072;-79
2022/11/11 13:41:44;;;;;;;22.37;11.33;;;;;;;14.50;71.76;100583.50;1712634;82;21016;-77
2022/11/11 13:44:38;;;;;;;24.18;11.30;;;;;;;14.43;71.39;100584.48;1693824;82;22178;-79
2022/11/11 13:47:43;;;;;;;23.85;9.83;;;;;;;14.39;70.80;100589.81;1718383;82;21056;-77
2022/11/11 13:50:33;;;;;;;18.30;9.25;;;;;;;14.33;71.29;100588.16;1719200;82;21031;-79
2022/11/11 13:53:33;;;;;;;17.57;9.23;;;;;;;14.25;71.13;100592.66;1736871;80;21058;-79
2022/11/11 13:56:41;;;;;;;22.17;8.98;;;;;;;14.18;71.62;100595.79;1727535;80;21915;-80
2022/11/11 13:59:30;;;;;;;16.80;8.55;;;;;;;14.08;71.59;100598.14;1725270;80;21051;-79
2022/11/11 14:02:25;;;;;;;24.63;10.15;;;;;;;13.99;72.00;100591.30;1723940;80;21105;-78
2022/11/11 14:05:16;;;;;;;21.73;9.58;;;;;;;13.90;72.31;100597.52;1740111;80;21037;-79
2022/11/11 14:08:00;;;;;;;27.75;11.63;;;;;;;13.80;72.52;100595.08;1721058;80;21079;-77